sensor_id;sensor_type;location;lat;lon;timestamp;pressure;altitude;pressure_sealevel;temperature;humidity
48848;BME280;36611;51.638;5.784;2023-03-23T00:01:53;100210.63;;;20.36;47.90
48848;BME280;36611;51.638;5.784;2023-03-23T00:04:18;100205.19;;;20.36;47.62
48848;BME280;36611;51.638;5.784;2023-03-23T00:06:44;100200.56;;;20.36;47.97
48848;BME280;36611;51.638;5.784;2023-03-23T00:09:12;100197.84;;;20.36;47.83
48848;BME280;36611;51.638;5.784;2023-03-23T00:11:38;100188.63;;;20.37;47.87
48848;BME280;36611;51.638;5.784;2023-03-23T00:14:04;100203.13;;;20.38;47.70
48848;BME280;36611;51.638;5.784;2023-03-23T00:16:32;100216.94;;;20.36;47.81
48848;BME280;36611;51.638;5.784;2023-03-23T00:19:06;100214.22;;;20.36;47.90
48848;BME280;36611;51.638;5.784;2023-03-23T00:21:37;100205.69;;;20.39;47.55
48848;BME280;36611;51.638;5.784;2023-03-23T00:26:38;100198.16;;;20.41;47.65
48848;BME280;36611;51.638;5.784;2023-03-23T00:29:16;100212.66;;;20.42;47.41
48848;BME280;36611;51.638;5.784;2023-03-23T00:31:45;100216.41;;;20.41;47.79
48848;BME280;36611;51.638;5.784;2023-03-23T00:34:18;100208.03;;;20.42;47.63
48848;BME280;36611;51.638;5.784;2023-03-23T00:36:46;100208.22;;;20.41;47.79
48848;BME280;36611;51.638;5.784;2023-03-23T00:39:12;100209.25;;;20.40;47.94
48848;BME280;36611;51.638;5.784;2023-03-23T00:41:39;100205.50;;;20.41;47.85
48848;BME280;36611;51.638;5.784;2023-03-23T00:44:04;100194.22;;;20.44;47.50
48848;BME280;36611;51.638;5.784;2023-03-23T00:46:30;100199.66;;;20.44;47.63
48848;BME280;36611;51.638;5.784;2023-03-23T00:48:56;100213.13;;;20.45;47.68
48848;BME280;36611;51.638;5.784;2023-03-23T00:51:23;100203.06;;;20.46;47.89
48848;BME280;36611;51.638;5.784;2023-03-23T00:53:49;100202.00;;;20.47;47.76
48848;BME280;36611;51.638;5.784;2023-03-23T00:56:15;100198.63;;;20.45;47.54
48848;BME280;36611;51.638;5.784;2023-03-23T00:58:41;100197.97;;;20.43;47.50
48848;BME280;36611;51.638;5.784;2023-03-23T01:01:07;100186.88;;;20.44;47.59
48848;BME280;36611;51.638;5.784;2023-03-23T01:03:33;100178.69;;;20.44;47.54
48848;BME280;36611;51.638;5.784;2023-03-23T01:06:08;100184.16;;;20.44;47.90
48848;BME280;36611;51.638;5.784;2023-03-23T01:08:41;100178.69;;;20.44;47.78
48848;BME280;36611;51.638;5.784;2023-03-23T01:11:15;100181.41;;;20.44;47.54
48848;BME280;36611;51.638;5.784;2023-03-23T01:13:42;100189.59;;;20.44;47.84
48848;BME280;36611;51.638;5.784;2023-03-23T01:16:08;100186.69;;;20.46;47.62
48848;BME280;36611;51.638;5.784;2023-03-23T01:18:34;100192.31;;;20.44;47.41
48848;BME280;36611;51.638;5.784;2023-03-23T01:21:11;100192.31;;;20.44;47.77
48848;BME280;36611;51.638;5.784;2023-03-23T01:23:38;100200.50;;;20.44;47.47
48848;BME280;36611;51.638;5.784;2023-03-23T01:26:09;100192.53;;;20.43;47.45
48848;BME280;36611;51.638;5.784;2023-03-23T01:28:35;100163.38;;;20.43;47.55
48848;BME280;36611;51.638;5.784;2023-03-23T01:31:06;100153.31;;;20.44;47.98
48848;BME280;36611;51.638;5.784;2023-03-23T01:33:34;100130.63;;;20.43;47.39
48848;BME280;36611;51.638;5.784;2023-03-23T01:36:06;100129.59;;;20.44;47.63
48848;BME280;36611;51.638;5.784;2023-03-23T01:38:33;100134.00;;;20.45;47.46
48848;BME280;36611;51.638;5.784;2023-03-23T01:41:00;100120.00;;;20.48;47.74
48848;BME280;36611;51.638;5.784;2023-03-23T01:43:26;100108.91;;;20.50;47.54
48848;BME280;36611;51.638;5.784;2023-03-23T01:45:52;100110.97;;;20.48;47.46
48848;BME280;36611;51.638;5.784;2023-03-23T01:48:22;100118.13;;;20.49;47.77
48848;BME280;36611;51.638;5.784;2023-03-23T01:50:56;100120.66;;;20.50;47.69
48848;BME280;36611;51.638;5.784;2023-03-23T01:53:28;100111.81;;;20.48;47.64
48848;BME280;36611;51.638;5.784;2023-03-23T01:55:56;100115.78;;;20.46;47.53
48848;BME280;36611;51.638;5.784;2023-03-23T01:58:26;100114.91;;;20.45;47.94
48848;BME280;36611;51.638;5.784;2023-03-23T02:00:55;100125.66;;;20.47;47.44
48848;BME280;36611;51.638;5.784;2023-03-23T02:03:24;100127.53;;;20.46;47.83
48848;BME280;36611;51.638;5.784;2023-03-23T02:05:51;100120.00;;;20.48;47.76
48848;BME280;36611;51.638;5.784;2023-03-23T02:08:31;100111.81;;;20.48;47.56
48848;BME280;36611;51.638;5.784;2023-03-23T02:10:59;100102.97;;;20.46;47.68
48848;BME280;36611;51.638;5.784;2023-03-23T02:13:27;100100.06;;;20.48;47.93
48848;BME280;36611;51.638;5.784;2023-03-23T02:16:34;100082.66;;;20.49;47.67
48848;BME280;36611;51.638;5.784;2023-03-23T02:30:57;100062.25;;;20.45;47.68
48848;BME280;36611;51.638;5.784;2023-03-23T02:34:02;100063.94;;;20.46;47.75
48848;BME280;36611;51.638;5.784;2023-03-23T02:36:37;100070.44;;;20.45;47.92
48848;BME280;36611;51.638;5.784;2023-03-23T02:39:14;100072.97;;;20.46;47.65
48848;BME280;36611;51.638;5.784;2023-03-23T02:41:57;100072.13;;;20.46;48.00
48848;BME280;36611;51.638;5.784;2023-03-23T02:44:26;100072.13;;;20.46;47.77
48848;BME280;36611;51.638;5.784;2023-03-23T02:46:57;100071.28;;;20.45;47.58
48848;BME280;36611;51.638;5.784;2023-03-23T02:49:25;100076.09;;;20.43;47.59
48848;BME280;36611;51.638;5.784;2023-03-23T02:51:53;100071.47;;;20.44;47.63
48848;BME280;36611;51.638;5.784;2023-03-23T02:54:22;100066.88;;;20.44;47.73
48848;BME280;36611;51.638;5.784;2023-03-23T02:56:52;100062.06;;;20.46;47.69
48848;BME280;36611;51.638;5.784;2023-03-23T02:59:24;100065.25;;;20.50;47.68
48848;BME280;36611;51.638;5.784;2023-03-23T03:02:23;100075.50;;;20.48;47.41
48848;BME280;36611;51.638;5.784;2023-03-23T03:05:06;100072.13;;;20.46;47.57
48848;BME280;36611;51.638;5.784;2023-03-23T03:07:50;100072.78;;;20.48;47.84
48848;BME280;36611;51.638;5.784;2023-03-23T03:10:31;100075.31;;;20.49;47.60
48848;BME280;36611;51.638;5.784;2023-03-23T03:13:23;100070.72;;;20.50;47.47
48848;BME280;36611;51.638;5.784;2023-03-23T03:16:22;100066.66;;;20.46;47.56
48848;BME280;36611;51.638;5.784;2023-03-23T03:18:56;100076.75;;;20.45;47.81
48848;BME280;36611;51.638;5.784;2023-03-23T03:21:27;100075.91;;;20.45;47.75
48848;BME280;36611;51.638;5.784;2023-03-23T03:23:58;100077.59;;;20.46;47.56
48848;BME280;36611;51.638;5.784;2023-03-23T03:26:27;100085.13;;;20.44;47.65
48848;BME280;36611;51.638;5.784;2023-03-23T03:28:59;100075.03;;;20.44;47.69
48848;BME280;36611;51.638;5.784;2023-03-23T03:31:38;100069.59;;;20.44;47.96
48848;BME280;36611;51.638;5.784;2023-03-23T03:34:05;100072.31;;;20.44;47.83
48848;BME280;36611;51.638;5.784;2023-03-23T03:36:36;100075.25;;;20.43;47.63
48848;BME280;36611;51.638;5.784;2023-03-23T03:39:08;100079.84;;;20.42;47.68
48848;BME280;36611;51.638;5.784;2023-03-23T03:41:36;100077.78;;;20.44;47.79
48848;BME280;36611;51.638;5.784;2023-03-23T03:44:03;100076.28;;;20.42;47.55
48848;BME280;36611;51.638;5.784;2023-03-23T03:46:31;100079.84;;;20.42;47.70
48848;BME280;36611;51.638;5.784;2023-03-23T03:48:58;100075.25;;;20.43;47.86
48848;BME280;36611;51.638;5.784;2023-03-23T03:51:25;100080.50;;;20.44;47.95
48848;BME280;36611;51.638;5.784;2023-03-23T03:53:52;100079.84;;;20.42;47.58
48848;BME280;36611;51.638;5.784;2023-03-23T03:56:18;100082.19;;;20.45;47.68
48848;BME280;36611;51.638;5.784;2023-03-23T03:58:53;100080.13;;;20.47;47.70
48848;BME280;36611;51.638;5.784;2023-03-23T04:01:34;100084.34;;;20.50;47.74
48848;BME280;36611;51.638;5.784;2023-03-23T04:04:00;100087.47;;;20.47;47.89
48848;BME280;36611;51.638;5.784;2023-03-23T04:06:30;100078.03;;;20.49;47.89
48848;BME280;36611;51.638;5.784;2023-03-23T04:08:57;100087.06;;;20.50;47.89
48848;BME280;36611;51.638;5.784;2023-03-23T04:11:25;100085.38;;;20.49;47.82
48848;BME280;36611;51.638;5.784;2023-03-23T04:13:53;100093.56;;;20.49;47.82
48848;BME280;36611;51.638;5.784;2023-03-23T04:16:20;100094.78;;;20.46;47.42
48848;BME280;36611;51.638;5.784;2023-03-23T04:18:47;100094.13;;;20.44;47.82
48848;BME280;36611;51.638;5.784;2023-03-23T04:21:15;100100.63;;;20.43;47.98
48848;BME280;36611;51.638;5.784;2023-03-23T04:23:43;100092.25;;;20.45;47.77
48848;BME280;36611;51.638;5.784;2023-03-23T04:26:09;100092.06;;;20.46;48.09
48848;BME280;36611;51.638;5.784;2023-03-23T04:28:40;100097.53;;;20.46;47.58
48848;BME280;36611;51.638;5.784;2023-03-23T04:31:41;100095.00;;;20.45;47.43
48848;BME280;36611;51.638;5.784;2023-03-23T04:34:30;100106.28;;;20.42;47.56
48848;BME280;36611;51.638;5.784;2023-03-23T04:36:58;100104.59;;;20.41;47.71
48848;BME280;36611;51.638;5.784;2023-03-23T04:39:27;100109.00;;;20.42;47.96
48848;BME280;36611;51.638;5.784;2023-03-23T04:41:55;100106.28;;;20.42;47.68
48848;BME280;36611;51.638;5.784;2023-03-23T04:44:25;100114.06;;;20.45;47.69
48848;BME280;36611;51.638;5.784;2023-03-23T04:47:04;100121.41;;;20.44;47.71
48848;BME280;36611;51.638;5.784;2023-03-23T04:49:34;100121.59;;;20.43;48.02
48848;BME280;36611;51.638;5.784;2023-03-23T04:52:11;100127.91;;;20.43;47.65
48848;BME280;36611;51.638;5.784;2023-03-23T04:54:41;100115.13;;;20.44;47.77
48848;BME280;36611;51.638;5.784;2023-03-23T04:57:08;100123.47;;;20.42;47.81
48848;BME280;36611;51.638;5.784;2023-03-23T04:59:38;100118.50;;;20.46;47.49
48848;BME280;36611;51.638;5.784;2023-03-23T05:02:11;100115.13;;;20.44;47.78
48848;BME280;36611;51.638;5.784;2023-03-23T05:04:40;100119.72;;;20.43;47.97
48848;BME280;36611;51.638;5.784;2023-03-23T05:07:13;100120.75;;;20.42;47.95
48848;BME280;36611;51.638;5.784;2023-03-23T05:09:48;100127.06;;;20.43;47.81
48848;BME280;36611;51.638;5.784;2023-03-23T05:12:15;100115.50;;;20.41;47.86
48848;BME280;36611;51.638;5.784;2023-03-23T05:14:51;100116.16;;;20.43;47.87
48848;BME280;36611;51.638;5.784;2023-03-23T05:17:19;100121.41;;;20.44;47.83
48848;BME280;36611;51.638;5.784;2023-03-23T05:19:48;100123.09;;;20.45;47.90
48848;BME280;36611;51.638;5.784;2023-03-23T05:22:31;100121.41;;;20.44;47.54
48848;BME280;36611;51.638;5.784;2023-03-23T05:24:59;100126.03;;;20.44;47.98
48848;BME280;36611;51.638;5.784;2023-03-23T05:27:29;100121.41;;;20.44;47.83
48848;BME280;36611;51.638;5.784;2023-03-23T05:29:59;100129.59;;;20.44;47.82
48848;BME280;36611;51.638;5.784;2023-03-23T05:32:27;100120.19;;;20.47;47.54
48848;BME280;36611;51.638;5.784;2023-03-23T05:35:03;100123.56;;;20.49;47.66
48848;BME280;36611;51.638;5.784;2023-03-23T05:37:30;100120.00;;;20.48;47.81
48848;BME280;36611;51.638;5.784;2023-03-23T05:40:06;100129.03;;;20.49;47.68
48848;BME280;36611;51.638;5.784;2023-03-23T05:42:39;100132.41;;;20.51;47.63
48848;BME280;36611;51.638;5.784;2023-03-23T05:45:13;100129.69;;;20.51;47.62
48848;BME280;36611;51.638;5.784;2023-03-23T05:47:40;100137.03;;;20.50;47.62
48848;BME280;36611;51.638;5.784;2023-03-23T05:50:11;100139.09;;;20.48;47.71
48848;BME280;36611;51.638;5.784;2023-03-23T05:52:38;100133.63;;;20.48;47.57
48848;BME280;36611;51.638;5.784;2023-03-23T05:55:08;100139.94;;;20.49;47.64
48848;BME280;36611;51.638;5.784;2023-03-23T05:57:36;100125.66;;;20.47;47.93
48848;BME280;36611;51.638;5.784;2023-03-23T06:00:22;100131.47;;;20.44;47.86
48848;BME280;36611;51.638;5.784;2023-03-23T06:02:56;100136.75;;;20.45;47.59
48848;BME280;36611;51.638;5.784;2023-03-23T06:05:30;100144.06;;;20.45;47.63
48848;BME280;36611;51.638;5.784;2023-03-23T06:07:57;100131.47;;;20.44;47.84
48848;BME280;36611;51.638;5.784;2023-03-23T06:10:23;100143.22;;;20.44;47.51
48848;BME280;36611;51.638;5.784;2023-03-23T06:12:59;100148.50;;;20.46;47.84
48848;BME280;36611;51.638;5.784;2023-03-23T06:15:46;100144.72;;;20.47;47.86
48848;BME280;36611;51.638;5.784;2023-03-23T06:18:32;100153.75;;;20.47;47.89
48848;BME280;36611;51.638;5.784;2023-03-23T06:21:18;100146.81;;;20.45;47.79
48848;BME280;36611;51.638;5.784;2023-03-23T06:23:52;100155.19;;;20.43;47.55
48848;BME280;36611;51.638;5.784;2023-03-23T06:26:20;100157.72;;;20.45;47.56
48848;BME280;36611;51.638;5.784;2023-03-23T06:28:50;100158.56;;;20.45;47.65
48848;BME280;36611;51.638;5.784;2023-03-23T06:31:16;100165.91;;;20.45;47.78
48848;BME280;36611;51.638;5.784;2023-03-23T06:33:43;100175.78;;;20.46;47.63
48848;BME280;36611;51.638;5.784;2023-03-23T06:36:23;100184.16;;;20.44;47.89
48848;BME280;36611;51.638;5.784;2023-03-23T06:39:14;100191.47;;;20.44;47.60
48848;BME280;36611;51.638;5.784;2023-03-23T06:41:59;100196.94;;;20.44;47.66
48848;BME280;36611;51.638;5.784;2023-03-23T06:44:28;100197.97;;;20.43;47.70
48848;BME280;36611;51.638;5.784;2023-03-23T06:46:55;100199.00;;;20.42;47.68
48848;BME280;36611;51.638;5.784;2023-03-23T06:49:25;100194.41;;;20.42;47.74
48848;BME280;36611;51.638;5.784;2023-03-23T06:51:59;100197.97;;;20.43;47.73
48848;BME280;36611;51.638;5.784;2023-03-23T06:54:27;100198.63;;;20.45;47.68
48848;BME280;36611;51.638;5.784;2023-03-23T06:56:53;100202.00;;;20.47;47.64
48848;BME280;36611;51.638;5.784;2023-03-23T06:59:19;100210.19;;;20.47;47.86
48848;BME280;36611;51.638;5.784;2023-03-23T07:01:45;100197.78;;;20.44;47.73
48848;BME280;36611;51.638;5.784;2023-03-23T07:04:12;100206.16;;;20.43;47.64
48848;BME280;36611;51.638;5.784;2023-03-23T07:06:47;100205.13;;;20.44;47.82
48848;BME280;36611;51.638;5.784;2023-03-23T07:09:13;100206.81;;;20.45;47.85
48848;BME280;36611;51.638;5.784;2023-03-23T07:11:40;100212.28;;;20.45;47.60
48848;BME280;36611;51.638;5.784;2023-03-23T07:14:14;100217.06;;;20.43;47.84
48848;BME280;36611;51.638;5.784;2023-03-23T07:16:40;100212.28;;;20.45;47.76
48848;BME280;36611;51.638;5.784;2023-03-23T07:19:06;100203.25;;;20.44;47.97
48848;BME280;36611;51.638;5.784;2023-03-23T07:21:32;100215.38;;;20.42;47.56
48848;BME280;36611;51.638;5.784;2023-03-23T07:23:57;100219.13;;;20.41;47.78
48848;BME280;36611;51.638;5.784;2023-03-23T07:26:37;100217.59;;;20.38;47.87
48848;BME280;36611;51.638;5.784;2023-03-23T07:29:03;100224.94;;;20.38;47.76
48848;BME280;36611;51.638;5.784;2023-03-23T07:31:36;100239.59;;;20.37;48.07
48848;BME280;36611;51.638;5.784;2023-03-23T07:34:02;100238.94;;;20.35;48.08
48848;BME280;36611;51.638;5.784;2023-03-23T07:36:57;100229.91;;;20.34;48.07
48848;BME280;36611;51.638;5.784;2023-03-23T07:39:26;100231.41;;;20.37;47.99
48848;BME280;36611;51.638;5.784;2023-03-23T07:41:55;100234.16;;;20.37;48.19
48848;BME280;36611;51.638;5.784;2023-03-23T07:44:33;100235.00;;;20.37;47.77
48848;BME280;36611;51.638;5.784;2023-03-23T07:47:05;100228.88;;;20.35;48.10
48848;BME280;36611;51.638;5.784;2023-03-23T07:49:32;100237.91;;;20.36;48.23
48848;BME280;36611;51.638;5.784;2023-03-23T07:52:12;100238.75;;;20.36;48.06
48848;BME280;36611;51.638;5.784;2023-03-23T07:54:39;100232.44;;;20.36;48.15
48848;BME280;36611;51.638;5.784;2023-03-23T07:57:14;100242.50;;;20.35;48.00
48848;BME280;36611;51.638;5.784;2023-03-23T07:59:45;100239.59;;;20.37;48.07
48848;BME280;36611;51.638;5.784;2023-03-23T08:02:11;100238.56;;;20.38;47.83
48848;BME280;36611;51.638;5.784;2023-03-23T08:05:00;100261.22;;;20.38;47.98
48848;BME280;36611;51.638;5.784;2023-03-23T08:07:44;100258.69;;;20.37;47.96
48848;BME280;36611;51.638;5.784;2023-03-23T08:10:16;100246.94;;;20.36;48.14
48848;BME280;36611;51.638;5.784;2023-03-23T08:13:21;100262.28;;;20.37;48.09
48848;BME280;36611;51.638;5.784;2023-03-23T08:16:25;100269.78;;;20.35;47.94
48848;BME280;36611;51.638;5.784;2023-03-23T08:19:02;100273.38;;;20.36;48.17
48848;BME280;36611;51.638;5.784;2023-03-23T08:21:50;100265.19;;;20.36;47.82
48848;BME280;36611;51.638;5.784;2023-03-23T08:24:34;100271.47;;;20.36;47.96
48848;BME280;36611;51.638;5.784;2023-03-23T08:27:08;100270.63;;;20.36;47.94
48848;BME280;36611;51.638;5.784;2023-03-23T08:29:37;100272.69;;;20.34;48.00
48848;BME280;36611;51.638;5.784;2023-03-23T08:32:14;100290.75;;;20.35;48.19
48848;BME280;36611;51.638;5.784;2023-03-23T08:34:53;100281.91;;;20.33;47.97
48848;BME280;36611;51.638;5.784;2023-03-23T08:37:40;100280.22;;;20.31;48.11
48848;BME280;36611;51.638;5.784;2023-03-23T08:40:19;100286.72;;;20.30;48.16
48848;BME280;36611;51.638;5.784;2023-03-23T08:43:05;100280.22;;;20.31;47.98
48848;BME280;36611;51.638;5.784;2023-03-23T08:46:08;100290.28;;;20.31;48.47
48848;BME280;36611;51.638;5.784;2023-03-23T08:48:51;100302.03;;;20.31;48.06
48848;BME280;36611;51.638;5.784;2023-03-23T08:51:37;100303.06;;;20.30;48.32
48848;BME280;36611;51.638;5.784;2023-03-23T08:54:10;100304.59;;;20.33;48.24
48848;BME280;36611;51.638;5.784;2023-03-23T08:56:48;100276.28;;;20.34;48.23
48848;BME280;36611;51.638;5.784;2023-03-23T08:59:29;100285.31;;;20.35;48.09
48848;BME280;36611;51.638;5.784;2023-03-23T09:02:18;100299.59;;;20.37;48.02
48848;BME280;36611;51.638;5.784;2023-03-23T09:05:03;100298.41;;;20.39;47.91
48848;BME280;36611;51.638;5.784;2023-03-23T09:07:45;100302.00;;;20.40;48.25
48848;BME280;36611;51.638;5.784;2023-03-23T09:10:12;100303.69;;;20.41;48.25
48848;BME280;36611;51.638;5.784;2023-03-23T09:12:38;100297.84;;;20.44;48.03
48848;BME280;36611;51.638;5.784;2023-03-23T09:15:05;100306.22;;;20.42;48.06
48848;BME280;36611;51.638;5.784;2023-03-23T09:17:38;100300.97;;;20.41;48.14
48848;BME280;36611;51.638;5.784;2023-03-23T09:20:06;100289.00;;;20.42;47.91
48848;BME280;36611;51.638;5.784;2023-03-23T09:22:38;100289.88;;;20.42;47.72
48848;BME280;36611;51.638;5.784;2023-03-23T09:25:05;100297.00;;;20.43;47.87
48848;BME280;36611;51.638;5.784;2023-03-23T09:27:31;100287.22;;;20.49;47.74
48848;BME280;36611;51.638;5.784;2023-03-23T09:29:57;100279.25;;;20.47;47.93
48848;BME280;36611;51.638;5.784;2023-03-23T09:32:22;100275.66;;;20.47;47.88
48848;BME280;36611;51.638;5.784;2023-03-23T09:34:48;100276.69;;;20.46;47.92
48848;BME280;36611;51.638;5.784;2023-03-23T09:37:13;100276.88;;;20.44;47.92
48848;BME280;36611;51.638;5.784;2023-03-23T09:39:39;100289.69;;;20.44;47.95
48848;BME280;36611;51.638;5.784;2023-03-23T09:45:18;100302.28;;;20.45;47.78
48848;BME280;36611;51.638;5.784;2023-03-23T09:50:18;100319.88;;;20.42;47.97
48848;BME280;36611;51.638;5.784;2023-03-23T09:53:00;100315.06;;;20.44;48.14
48848;BME280;36611;51.638;5.784;2023-03-23T09:55:28;100317.13;;;20.42;47.96
48848;BME280;36611;51.638;5.784;2023-03-23T09:58:16;100316.28;;;20.42;47.77
48848;BME280;36611;51.638;5.784;2023-03-23T10:00:50;100332.00;;;20.40;47.79
48848;BME280;36611;51.638;5.784;2023-03-23T10:03:35;100327.38;;;20.40;47.74
48848;BME280;36611;51.638;5.784;2023-03-23T10:06:02;100335.56;;;20.40;47.93
48848;BME280;36611;51.638;5.784;2023-03-23T10:08:30;100334.03;;;20.38;47.82
48848;BME280;36611;51.638;5.784;2023-03-23T10:11:02;100333.00;;;20.39;47.95
48848;BME280;36611;51.638;5.784;2023-03-23T10:13:45;100334.88;;;20.38;47.61
48848;BME280;36611;51.638;5.784;2023-03-23T10:16:18;100338.63;;;20.37;48.02
48848;BME280;36611;51.638;5.784;2023-03-23T10:18:58;100337.59;;;20.38;47.75
48848;BME280;36611;51.638;5.784;2023-03-23T10:21:26;100346.63;;;20.39;48.21
48848;BME280;36611;51.638;5.784;2023-03-23T10:23:58;100340.19;;;20.40;47.98
48848;BME280;36611;51.638;5.784;2023-03-23T10:32:12;100334.34;;;20.43;48.16
48848;BME280;36611;51.638;5.784;2023-03-23T10:35:00;100352.41;;;20.44;47.83
48848;BME280;36611;51.638;5.784;2023-03-23T10:37:31;100357.00;;;20.43;48.03
48848;BME280;36611;51.638;5.784;2023-03-23T10:40:00;100356.84;;;20.45;47.91
48848;BME280;36611;51.638;5.784;2023-03-23T10:42:30;100354.09;;;20.45;47.89
48848;BME280;36611;51.638;5.784;2023-03-23T10:45:20;100366.53;;;20.47;47.56
48848;BME280;36611;51.638;5.784;2023-03-23T10:50:41;100371.63;;;20.50;48.04
48848;BME280;36611;51.638;5.784;2023-03-23T10:53:17;100372.66;;;20.49;47.66
48848;BME280;36611;51.638;5.784;2023-03-23T10:55:44;100367.00;;;20.51;47.71
48848;BME280;36611;51.638;5.784;2023-03-23T10:58:23;100367.00;;;20.51;47.79
48848;BME280;36611;51.638;5.784;2023-03-23T11:00:50;100372.47;;;20.51;47.86
48848;BME280;36611;51.638;5.784;2023-03-23T11:05:49;100360.69;;;20.50;47.94
48848;BME280;36611;51.638;5.784;2023-03-23T11:08:21;100366.34;;;20.49;47.73
48848;BME280;36611;51.638;5.784;2023-03-23T11:10:49;100357.31;;;20.48;47.57
48848;BME280;36611;51.638;5.784;2023-03-23T11:13:16;100360.88;;;20.49;47.68
48848;BME280;36611;51.638;5.784;2023-03-23T11:15:44;100359.38;;;20.46;47.77
48848;BME280;36611;51.638;5.784;2023-03-23T11:18:21;100344.88;;;20.46;47.72
48848;BME280;36611;51.638;5.784;2023-03-23T11:20:53;100358.81;;;20.51;47.87
48848;BME280;36611;51.638;5.784;2023-03-23T11:26:43;100349.97;;;20.49;47.88
48848;BME280;36611;51.638;5.784;2023-03-23T11:29:16;100361.53;;;20.51;47.88
48848;BME280;36611;51.638;5.784;2023-03-23T11:31:52;100360.50;;;20.52;47.67
48848;BME280;36611;51.638;5.784;2023-03-23T11:34:21;100363.25;;;20.52;47.59
48848;BME280;36611;51.638;5.784;2023-03-23T11:37:24;100366.16;;;20.50;48.04
48848;BME280;36611;51.638;5.784;2023-03-23T11:40:16;100364.28;;;20.51;47.94
48848;BME280;36611;51.638;5.784;2023-03-23T11:42:48;100371.25;;;20.53;47.80
48848;BME280;36611;51.638;5.784;2023-03-23T11:45:30;100368.69;;;20.52;47.75
48848;BME280;36611;51.638;5.784;2023-03-23T11:48:03;100376.03;;;20.51;47.97
48848;BME280;36611;51.638;5.784;2023-03-23T11:50:53;100365.31;;;20.50;47.73
48848;BME280;36611;51.638;5.784;2023-03-23T11:58:54;100373.31;;;20.51;47.98
48848;BME280;36611;51.638;5.784;2023-03-23T12:01:46;100375.00;;;20.52;47.79
48848;BME280;36611;51.638;5.784;2023-03-23T12:17:27;100340.69;;;20.58;47.77
48848;BME280;36611;51.638;5.784;2023-03-23T12:20:08;100336.25;;;20.57;47.70
48848;BME280;36611;51.638;5.784;2023-03-23T12:33:34;100363.72;;;20.55;47.79
48848;BME280;36611;51.638;5.784;2023-03-23T12:39:25;100347.53;;;20.54;47.83
48848;BME280;36611;51.638;5.784;2023-03-23T12:50:37;100323.16;;;20.52;48.18
48848;BME280;36611;51.638;5.784;2023-03-23T12:53:28;100309.53;;;20.52;47.96
48848;BME280;36611;51.638;5.784;2023-03-23T12:58:42;100295.72;;;20.54;48.22
48848;BME280;36611;51.638;5.784;2023-03-23T13:01:18;100297.41;;;20.55;48.11
48848;BME280;36611;51.638;5.784;2023-03-23T13:03:59;100291.94;;;20.55;47.80
48848;BME280;36611;51.638;5.784;2023-03-23T13:06:37;100280.00;;;20.56;48.11
48848;BME280;36611;51.638;5.784;2023-03-23T13:11:57;100308.78;;;20.58;48.08
48848;BME280;36611;51.638;5.784;2023-03-23T13:20:30;100332.97;;;20.61;47.71
48848;BME280;36611;51.638;5.784;2023-03-23T13:28:00;100323.28;;;20.59;47.88
48848;BME280;36611;51.638;5.784;2023-03-23T13:30:27;100325.16;;;20.58;47.86
48848;BME280;36611;51.638;5.784;2023-03-23T13:33:05;100321.56;;;20.58;47.94
48848;BME280;36611;51.638;5.784;2023-03-23T13:35:36;100331.47;;;20.59;47.82
48848;BME280;36611;51.638;5.784;2023-03-23T13:38:15;100324.31;;;20.58;48.13
48848;BME280;36611;51.638;5.784;2023-03-23T13:40:43;100309.63;;;20.59;48.08
48848;BME280;36611;51.638;5.784;2023-03-23T13:43:09;100320.34;;;20.60;47.92
48848;BME280;36611;51.638;5.784;2023-03-23T13:45:44;100324.78;;;20.61;47.73
48848;BME280;36611;51.638;5.784;2023-03-23T13:53:35;100302.09;;;20.61;47.93
48848;BME280;36611;51.638;5.784;2023-03-23T13:56:20;100297.50;;;20.61;47.92
48848;BME280;36611;51.638;5.784;2023-03-23T13:58:50;100298.53;;;20.60;48.20
48848;BME280;36611;51.638;5.784;2023-03-23T14:01:37;100302.28;;;20.59;48.38
48848;BME280;36611;51.638;5.784;2023-03-23T14:04:05;100313.88;;;20.61;48.17
48848;BME280;36611;51.638;5.784;2023-03-23T14:06:35;100312.84;;;20.62;47.95
48848;BME280;36611;51.638;5.784;2023-03-23T14:09:28;100340.50;;;20.59;48.08
48848;BME280;36611;51.638;5.784;2023-03-23T14:12:02;100355.81;;;20.60;47.98
48848;BME280;36611;51.638;5.784;2023-03-23T14:14:45;100369.28;;;20.62;47.75
48848;BME280;36611;51.638;5.784;2023-03-23T14:17:39;100382.19;;;20.68;48.15
48848;BME280;36611;51.638;5.784;2023-03-23T14:20:06;100356.41;;;20.71;48.19
48848;BME280;36611;51.638;5.784;2023-03-23T14:22:38;100349.63;;;20.67;47.97
48848;BME280;36611;51.638;5.784;2023-03-23T14:25:12;100339.75;;;20.66;48.16
48848;BME280;36611;51.638;5.784;2023-03-23T14:27:38;100343.69;;;20.63;48.11
48848;BME280;36611;51.638;5.784;2023-03-23T14:30:07;100346.31;;;20.56;48.30
48848;BME280;36611;51.638;5.784;2023-03-23T14:32:34;100336.63;;;20.54;48.42
48848;BME280;36611;51.638;5.784;2023-03-23T14:35:06;100340.50;;;20.59;48.14
48848;BME280;36611;51.638;5.784;2023-03-23T14:37:33;100339.09;;;20.63;48.24
48848;BME280;36611;51.638;5.784;2023-03-23T14:40:01;100321.69;;;20.65;48.03
48848;BME280;36611;51.638;5.784;2023-03-23T14:42:33;100307.84;;;20.66;48.13
48848;BME280;36611;51.638;5.784;2023-03-23T14:45:00;100287.34;;;20.70;48.18
48848;BME280;36611;51.638;5.784;2023-03-23T14:47:30;100284.22;;;20.73;47.95
48848;BME280;36611;51.638;5.784;2023-03-23T14:49:58;100272.75;;;20.78;48.11
48848;BME280;36611;51.638;5.784;2023-03-23T14:52:29;100268.44;;;20.83;48.05
48848;BME280;36611;51.638;5.784;2023-03-23T14:55:11;100272.50;;;20.87;47.96
48848;BME280;36611;51.638;5.784;2023-03-23T14:57:40;100278.59;;;20.89;48.22
48848;BME280;36611;51.638;5.784;2023-03-23T15:00:22;100255.53;;;20.92;47.78